createdAt,value
2024-01-15T00:00:10.961Z,30.67
2024-01-15T00:00:41.033Z,30.68
2024-01-15T00:01:11.176Z,30.61
2024-01-15T00:01:40.997Z,30.62
2024-01-15T00:02:10.995Z,30.59
2024-01-15T00:02:41.000Z,30.57
2024-01-15T00:03:11.054Z,30.59
2024-01-15T00:03:41.145Z,30.61
2024-01-15T00:04:11.325Z,30.58
2024-01-15T00:04:41.284Z,30.57
2024-01-15T00:05:11.325Z,30.52
2024-01-15T00:05:41.326Z,30.51
2024-01-15T00:06:11.490Z,30.46
2024-01-15T00:06:41.478Z,30.51
2024-01-15T00:07:11.467Z,30.53
2024-01-15T00:07:41.466Z,30.49
2024-01-15T00:08:11.475Z,30.47
2024-01-15T00:08:41.482Z,30.56
2024-01-15T00:09:11.540Z,30.54
2024-01-15T00:09:41.608Z,30.53
2024-01-15T00:10:11.673Z,30.54
2024-01-15T00:10:41.646Z,30.49
2024-01-15T00:11:41.717Z,30.56
2024-01-15T00:12:11.740Z,30.48
2024-01-15T00:12:41.795Z,30.51
2024-01-15T00:13:11.827Z,30.51
2024-01-15T00:13:41.828Z,30.42
2024-01-15T00:14:11.842Z,30.51
2024-01-15T00:14:41.840Z,30.43
2024-01-15T00:15:11.913Z,30.40
2024-01-15T00:15:41.940Z,30.45
2024-01-15T00:16:11.939Z,30.52
2024-01-15T00:16:41.957Z,30.43
2024-01-15T00:17:11.948Z,30.45
2024-01-15T00:17:41.978Z,30.48
2024-01-15T00:18:12.101Z,30.47
2024-01-15T00:18:42.205Z,30.52
2024-01-15T00:19:12.211Z,30.46
2024-01-15T00:19:42.199Z,30.45
2024-01-15T00:20:12.236Z,30.52
2024-01-15T00:20:42.238Z,30.56
2024-01-15T00:21:12.272Z,30.58
2024-01-15T00:21:42.303Z,30.52
2024-01-15T00:22:12.317Z,30.46
2024-01-15T00:22:42.390Z,30.44
2024-01-15T00:23:12.484Z,30.51
2024-01-15T00:23:42.566Z,30.55
2024-01-15T00:24:12.668Z,30.52
2024-01-15T00:24:42.664Z,30.47
2024-01-15T00:25:12.675Z,30.49
2024-01-15T00:25:42.672Z,30.49
2024-01-15T00:26:12.748Z,30.48
2024-01-15T00:26:42.808Z,30.42
2024-01-15T00:27:12.920Z,30.45
2024-01-15T00:27:42.986Z,30.46
2024-01-15T00:28:13.237Z,30.51
2024-01-15T00:28:43.087Z,30.47
2024-01-15T00:29:43.249Z,30.58
2024-01-15T00:30:13.536Z,30.52
2024-01-15T00:30:43.456Z,30.52
2024-01-15T00:31:13.534Z,30.50
2024-01-15T00:31:43.581Z,30.56
2024-01-15T00:32:13.621Z,30.55
2024-01-15T00:32:43.702Z,30.56
2024-01-15T00:33:13.966Z,30.61
2024-01-15T00:33:43.974Z,30.55
2024-01-15T00:34:14.044Z,30.49
2024-01-15T00:34:44.031Z,30.52
2024-01-15T00:35:13.982Z,30.55
2024-01-15T00:35:43.971Z,30.48
2024-01-15T00:36:44.171Z,30.43
2024-01-15T00:37:14.137Z,30.49
2024-01-15T00:37:44.149Z,30.55
2024-01-15T00:38:14.263Z,30.45
2024-01-15T00:38:44.256Z,30.48
2024-01-15T00:39:14.313Z,30.47
2024-01-15T00:39:44.346Z,30.53
2024-01-15T00:40:14.374Z,30.54
2024-01-15T00:40:44.399Z,30.60
2024-01-15T00:41:14.408Z,30.55
2024-01-15T00:42:14.558Z,30.51
2024-01-15T00:42:44.715Z,30.51
2024-01-15T00:43:14.658Z,30.50
2024-01-15T00:43:44.661Z,30.59
2024-01-15T00:44:44.762Z,30.61
2024-01-15T00:45:14.765Z,30.61
2024-01-15T00:45:44.790Z,30.55
2024-01-15T00:46:14.810Z,30.55
2024-01-15T00:46:44.807Z,30.52
2024-01-15T00:47:14.813Z,30.54
2024-01-15T00:47:44.889Z,30.59
2024-01-15T00:48:15.070Z,30.53
2024-01-15T00:48:45.089Z,30.52
2024-01-15T00:49:15.474Z,30.47
2024-01-15T00:49:45.130Z,30.55
2024-01-15T00:50:15.125Z,30.55
2024-01-15T00:50:45.135Z,30.52
2024-01-15T00:51:15.154Z,30.52
2024-01-15T00:51:45.240Z,30.56
2024-01-15T00:52:15.208Z,30.50
2024-01-15T00:52:45.218Z,30.50
2024-01-15T00:53:15.213Z,30.49
2024-01-15T00:54:15.332Z,30.49
2024-01-15T00:54:45.396Z,30.52
2024-01-15T00:55:15.398Z,30.46
2024-01-15T00:55:45.417Z,30.46
2024-01-15T00:56:15.434Z,30.52
2024-01-15T00:56:45.418Z,30.46
2024-01-15T00:57:45.604Z,30.43
2024-01-15T00:58:15.534Z,30.52
2024-01-15T00:58:45.520Z,30.50
2024-01-15T00:59:15.633Z,30.47
2024-01-15T00:59:45.633Z,30.47
2024-01-15T01:00:15.694Z,30.52
2024-01-15T01:00:45.877Z,30.52
2024-01-15T01:01:15.812Z,30.52
2024-01-15T01:01:45.800Z,30.47
2024-01-15T01:02:15.848Z,30.48
2024-01-15T01:02:45.857Z,30.46
2024-01-15T01:03:15.964Z,30.49
2024-01-15T01:03:46.013Z,30.47
2024-01-15T01:04:16.106Z,30.52
2024-01-15T01:04:46.018Z,30.43
2024-01-15T01:05:16.087Z,30.48
2024-01-15T01:05:46.141Z,30.50
2024-01-15T01:06:16.247Z,30.49
2024-01-15T01:06:46.306Z,30.58
2024-01-15T01:07:16.347Z,30.50
2024-01-15T01:07:46.335Z,30.53
2024-01-15T01:08:16.341Z,30.56
2024-01-15T01:08:46.339Z,30.59
2024-01-15T01:09:16.600Z,30.65
2024-01-15T01:09:46.639Z,30.63
2024-01-15T01:10:16.607Z,30.57
2024-01-15T01:10:46.599Z,30.59
2024-01-15T01:11:16.611Z,30.60
2024-01-15T01:11:46.737Z,30.62
2024-01-15T01:12:16.763Z,30.63
2024-01-15T01:12:46.885Z,30.63
2024-01-15T01:13:16.772Z,30.64
2024-01-15T01:13:46.777Z,30.63
2024-01-15T01:14:16.811Z,30.61
2024-01-15T01:14:46.794Z,30.59
2024-01-15T01:15:16.819Z,30.62
2024-01-15T01:15:47.041Z,30.56
2024-01-15T01:16:16.871Z,30.50
2024-01-15T01:16:46.892Z,30.54
2024-01-15T01:17:16.934Z,30.61
2024-01-15T01:17:47.112Z,30.53
2024-01-15T01:18:17.302Z,30.56
2024-01-15T01:18:47.325Z,30.59
2024-01-15T01:19:17.343Z,30.57
2024-01-15T01:19:47.338Z,30.64
2024-01-15T01:20:19.270Z,30.59
2024-01-15T01:20:47.334Z,30.60
2024-01-15T01:21:17.373Z,30.59
2024-01-15T01:21:47.397Z,30.52
2024-01-15T01:22:17.486Z,30.64
2024-01-15T01:22:47.602Z,30.56
2024-01-15T01:23:17.572Z,30.56
2024-01-15T01:23:47.663Z,30.59
2024-01-15T01:24:17.765Z,30.59
2024-01-15T01:24:47.869Z,30.62
2024-01-15T01:25:17.890Z,30.63
2024-01-15T01:25:47.925Z,30.62
2024-01-15T01:26:17.889Z,30.65
2024-01-15T01:26:47.926Z,30.65
2024-01-15T01:27:17.977Z,30.66
2024-01-15T01:27:47.945Z,30.63
2024-01-15T01:28:18.026Z,30.56
2024-01-15T01:28:48.076Z,30.59
2024-01-15T01:29:18.146Z,30.59
2024-01-15T01:29:48.222Z,30.57
2024-01-15T01:30:18.352Z,30.64
2024-01-15T01:30:48.435Z,30.57
2024-01-15T01:31:18.520Z,30.65
2024-01-15T01:31:48.623Z,30.56
2024-01-15T01:32:18.556Z,30.56
2024-01-15T01:32:48.599Z,30.55
2024-01-15T01:33:18.794Z,30.50
2024-01-15T01:33:48.710Z,30.53
2024-01-15T01:34:18.834Z,30.50
2024-01-15T01:34:48.784Z,30.44
2024-01-15T01:35:18.791Z,30.49
2024-01-15T01:35:48.805Z,30.49
2024-01-15T01:36:18.881Z,30.46
2024-01-15T01:37:18.915Z,30.46
2024-01-15T01:37:48.940Z,30.40
2024-01-15T01:38:18.914Z,30.46
2024-01-15T01:38:48.924Z,30.41
2024-01-15T01:39:18.991Z,30.43
2024-01-15T01:39:49.070Z,30.46
2024-01-15T01:40:19.067Z,30.55
2024-01-15T01:40:49.057Z,30.49
2024-01-15T01:41:19.069Z,30.45
2024-01-15T01:41:49.072Z,30.43
2024-01-15T01:42:19.098Z,30.40
2024-01-15T01:42:49.268Z,30.45
2024-01-15T01:43:19.176Z,30.37
2024-01-15T01:43:49.178Z,30.45
2024-01-15T01:44:19.193Z,30.45
2024-01-15T01:44:49.201Z,30.43
2024-01-15T01:45:19.245Z,30.43
2024-01-15T01:45:49.346Z,30.47
2024-01-15T01:46:19.281Z,30.46
2024-01-15T01:46:49.294Z,30.46
2024-01-15T01:47:19.317Z,30.46
2024-01-15T01:47:49.446Z,30.47
2024-01-15T01:48:19.538Z,30.53
2024-01-15T01:48:49.587Z,30.53
2024-01-15T01:49:19.637Z,30.55
2024-01-15T01:49:49.812Z,30.51
2024-01-15T01:50:19.752Z,30.53
2024-01-15T01:50:49.731Z,30.54
2024-01-15T01:51:19.779Z,30.53
2024-01-15T01:51:49.870Z,30.53
2024-01-15T01:52:19.822Z,30.62
2024-01-15T01:52:49.822Z,30.53
2024-01-15T01:53:49.887Z,30.56
2024-01-15T01:54:19.939Z,30.53
2024-01-15T01:54:50.011Z,30.50
2024-01-15T01:55:20.001Z,30.51
2024-01-15T01:55:50.000Z,30.43
2024-01-15T01:56:20.029Z,30.47
2024-01-15T01:56:50.035Z,30.55
2024-01-15T01:57:20.143Z,30.52
2024-01-15T01:57:50.147Z,30.52
2024-01-15T01:58:20.144Z,30.50
2024-01-15T01:58:50.118Z,30.46
2024-01-15T01:59:50.198Z,30.52
2024-01-15T02:00:20.335Z,30.47
2024-01-15T02:00:50.524Z,30.38
2024-01-15T02:01:20.762Z,30.43
2024-01-15T02:01:50.402Z,30.44
2024-01-15T02:02:50.477Z,30.41
2024-01-15T02:03:20.561Z,30.50
2024-01-15T02:03:50.639Z,30.40
2024-01-15T02:04:22.315Z,30.33
2024-01-15T02:04:50.780Z,30.33
2024-01-15T02:05:20.809Z,30.35
2024-01-15T02:05:50.936Z,30.36
2024-01-15T02:06:20.951Z,30.33
2024-01-15T02:06:50.992Z,30.31
2024-01-15T02:07:20.944Z,30.35
2024-01-15T02:07:50.972Z,30.37
2024-01-15T02:08:20.972Z,30.38
2024-01-15T02:08:50.975Z,30.34
2024-01-15T02:09:21.057Z,30.36
2024-01-15T02:09:51.163Z,30.37
2024-01-15T02:10:21.198Z,30.37
2024-01-15T02:10:51.202Z,30.43
2024-01-15T02:11:21.205Z,30.46
2024-01-15T02:11:51.215Z,30.40
2024-01-15T02:12:51.360Z,30.41
2024-01-15T02:13:21.283Z,30.43
2024-01-15T02:13:51.318Z,30.36
2024-01-15T02:14:21.319Z,30.37
2024-01-15T02:14:51.337Z,30.39
2024-01-15T02:15:21.381Z,30.40
2024-01-15T02:15:51.533Z,30.38
2024-01-15T02:16:21.376Z,30.40
2024-01-15T02:17:21.466Z,30.40
2024-01-15T02:17:51.507Z,30.40
2024-01-15T02:18:21.669Z,30.45
2024-01-15T02:18:51.690Z,30.34
2024-01-15T02:19:21.833Z,30.35
2024-01-15T02:19:51.852Z,30.41
2024-01-15T02:20:21.742Z,30.38
2024-01-15T02:20:51.745Z,30.41
2024-01-15T02:21:21.801Z,30.41
2024-01-15T02:21:51.845Z,30.37
2024-01-15T02:22:21.843Z,30.43
2024-01-15T02:22:51.913Z,30.38
2024-01-15T02:23:21.991Z,30.29
2024-01-15T02:23:52.092Z,30.35
2024-01-15T02:24:22.207Z,30.38
2024-01-15T02:24:52.309Z,30.43
2024-01-15T02:25:22.277Z,30.48
2024-01-15T02:25:52.355Z,30.53
2024-01-15T02:26:22.446Z,30.44
2024-01-15T02:26:52.521Z,30.41
2024-01-15T02:27:22.647Z,30.53
2024-01-15T02:27:52.629Z,30.49
2024-01-15T02:28:22.710Z,30.48
2024-01-15T02:28:52.799Z,30.38
2024-01-15T02:29:22.927Z,30.38
2024-01-15T02:29:52.974Z,30.38
2024-01-15T02:30:23.118Z,30.32
2024-01-15T02:30:53.296Z,30.38
2024-01-15T02:31:23.423Z,30.38
2024-01-15T02:31:53.517Z,30.40
2024-01-15T02:32:23.407Z,30.40
2024-01-15T02:32:53.380Z,30.38
2024-01-15T02:33:23.747Z,30.41
2024-01-15T02:33:53.585Z,30.41
2024-01-15T02:34:23.663Z,30.44
2024-01-15T02:34:53.743Z,30.46
2024-01-15T02:35:23.706Z,30.29
2024-01-15T02:35:53.711Z,30.38
2024-01-15T02:36:23.761Z,30.34
2024-01-15T02:36:53.797Z,30.34
2024-01-15T02:37:23.795Z,30.40
2024-01-15T02:37:53.829Z,30.36
2024-01-15T02:38:23.848Z,30.41
2024-01-15T02:38:53.858Z,30.37
2024-01-15T02:39:23.890Z,30.46
2024-01-15T02:39:53.966Z,30.41
2024-01-15T02:40:23.989Z,30.35
2024-01-15T02:40:53.989Z,30.35
2024-01-15T02:41:23.983Z,30.46
2024-01-15T02:41:53.984Z,30.40
2024-01-15T02:42:23.993Z,30.35
2024-01-15T02:42:53.996Z,30.32
2024-01-15T02:43:23.996Z,30.35
2024-01-15T02:43:54.018Z,30.35
2024-01-15T02:44:24.007Z,30.29
2024-01-15T02:44:54.155Z,30.34
2024-01-15T02:45:24.156Z,30.32
2024-01-15T02:45:54.289Z,30.39
2024-01-15T02:46:24.177Z,30.28
2024-01-15T02:46:54.190Z,30.34
2024-01-15T02:47:24.196Z,30.31
2024-01-15T02:47:54.231Z,30.32
2024-01-15T02:48:24.342Z,30.34
2024-01-15T02:48:54.385Z,30.30
2024-01-15T02:49:24.403Z,30.35
2024-01-15T02:49:54.418Z,30.35
2024-01-15T02:50:24.408Z,30.35
2024-01-15T02:50:54.409Z,30.37
2024-01-15T02:51:54.516Z,30.35
2024-01-15T02:52:24.504Z,30.38
2024-01-15T02:52:54.514Z,30.41
2024-01-15T02:53:24.512Z,30.51
2024-01-15T02:54:24.637Z,30.48
2024-01-15T02:54:54.723Z,30.42
2024-01-15T02:55:24.809Z,30.48
2024-01-15T02:55:54.801Z,30.52
2024-01-15T02:56:24.877Z,30.44
2024-01-15T02:56:54.868Z,30.40
2024-01-15T02:57:24.978Z,30.42
2024-01-15T02:57:54.980Z,30.39
2024-01-15T02:58:24.997Z,30.46
2024-01-15T02:58:54.999Z,30.40
2024-01-15T02:59:25.007Z,30.38
2024-01-15T02:59:55.018Z,30.35
2024-01-15T03:00:25.064Z,30.37
2024-01-15T03:00:55.160Z,30.34
2024-01-15T03:01:25.206Z,30.39
2024-01-15T03:01:55.216Z,30.36
2024-01-15T03:02:25.235Z,30.38
2024-01-15T03:02:55.324Z,30.40
2024-01-15T03:03:25.443Z,30.28
2024-01-15T03:03:55.457Z,30.31
2024-01-15T03:04:25.589Z,30.29
2024-01-15T03:04:55.510Z,30.28
2024-01-15T03:05:25.538Z,30.41
2024-01-15T03:05:55.784Z,30.35
2024-01-15T03:06:25.723Z,30.41
2024-01-15T03:06:55.743Z,30.44
2024-01-15T03:07:25.748Z,30.44
2024-01-15T03:07:55.860Z,30.44
2024-01-15T03:08:25.856Z,30.39
2024-01-15T03:08:55.871Z,30.41
2024-01-15T03:09:25.897Z,30.45
2024-01-15T03:09:55.976Z,30.41
2024-01-15T03:10:25.997Z,30.41
2024-01-15T03:10:56.026Z,30.35
2024-01-15T03:11:26.011Z,30.40
2024-01-15T03:11:56.007Z,30.42
2024-01-15T03:12:26.065Z,30.46
2024-01-15T03:12:56.108Z,30.45
2024-01-15T03:13:26.112Z,30.42
2024-01-15T03:13:56.121Z,30.41
2024-01-15T03:14:26.127Z,30.42
2024-01-15T03:14:56.139Z,30.46
2024-01-15T03:15:26.227Z,30.50
2024-01-15T03:15:56.335Z,30.49
2024-01-15T03:16:26.228Z,30.54
2024-01-15T03:16:56.247Z,30.54
2024-01-15T03:17:26.280Z,30.51
2024-01-15T03:17:56.324Z,30.51
2024-01-15T03:18:26.509Z,30.51
2024-01-15T03:18:56.406Z,30.48
2024-01-15T03:19:26.481Z,30.49
2024-01-15T03:19:56.629Z,30.53
2024-01-15T03:20:26.470Z,30.48
2024-01-15T03:20:56.460Z,30.48
2024-01-15T03:21:56.603Z,30.53
2024-01-15T03:22:26.578Z,30.58
2024-01-15T03:22:56.687Z,30.55
2024-01-15T03:23:26.741Z,30.58
2024-01-15T03:23:56.842Z,30.55
2024-01-15T03:24:26.953Z,30.51
2024-01-15T03:24:57.058Z,30.51
2024-01-15T03:25:27.014Z,30.48
2024-01-15T03:25:57.127Z,30.41
2024-01-15T03:26:27.110Z,30.50
2024-01-15T03:26:57.185Z,30.45
2024-01-15T03:27:27.394Z,30.39
2024-01-15T03:27:57.338Z,30.47
2024-01-15T03:28:27.293Z,30.45
2024-01-15T03:28:57.367Z,30.42
2024-01-15T03:29:27.460Z,30.48
2024-01-15T03:29:57.527Z,30.45
2024-01-15T03:30:27.684Z,30.45
2024-01-15T03:30:57.731Z,30.47
2024-01-15T03:31:27.841Z,30.38
2024-01-15T03:31:57.779Z,30.38
2024-01-15T03:32:27.756Z,30.35
2024-01-15T03:32:57.850Z,30.45
2024-01-15T03:33:27.985Z,30.44
2024-01-15T03:33:57.990Z,30.48
2024-01-15T03:34:28.032Z,30.48
2024-01-15T03:34:58.090Z,30.50
2024-01-15T03:35:28.023Z,30.45
2024-01-15T03:35:58.051Z,30.43
2024-01-15T03:36:28.152Z,30.44
2024-01-15T03:36:58.140Z,30.49
2024-01-15T03:37:28.157Z,30.48
2024-01-15T03:37:58.168Z,30.49
2024-01-15T03:38:28.163Z,30.47
2024-01-15T03:38:58.286Z,30.42
2024-01-15T03:39:28.330Z,30.39
2024-01-15T03:39:58.535Z,30.46
2024-01-15T03:40:28.636Z,30.42
2024-01-15T03:40:58.492Z,30.42
2024-01-15T03:41:28.500Z,30.47
2024-01-15T03:41:58.505Z,30.51
2024-01-15T03:42:58.598Z,30.46
2024-01-15T03:43:28.597Z,30.42
2024-01-15T03:43:58.712Z,30.48
2024-01-15T03:44:28.720Z,30.46
2024-01-15T03:44:58.724Z,30.42
2024-01-15T03:45:28.860Z,30.58
2024-01-15T03:45:58.810Z,30.55
2024-01-15T03:46:58.832Z,30.46
2024-01-15T03:47:28.900Z,30.52
2024-01-15T03:48:29.002Z,30.53
2024-01-15T03:48:59.051Z,30.61
2024-01-15T03:49:29.244Z,30.58
2024-01-15T03:49:59.118Z,30.54
2024-01-15T03:50:29.129Z,30.47
2024-01-15T03:50:59.213Z,30.42
2024-01-15T03:51:29.193Z,30.49
2024-01-15T03:52:29.321Z,30.44
2024-01-15T03:52:59.322Z,30.41
2024-01-15T03:53:29.322Z,30.44
2024-01-15T03:54:29.460Z,30.43
2024-01-15T03:54:59.492Z,30.49
2024-01-15T03:55:29.515Z,30.47
2024-01-15T03:55:59.532Z,30.42
2024-01-15T03:56:29.509Z,30.51
2024-01-15T03:57:29.615Z,30.55
2024-01-15T03:57:59.630Z,30.47
2024-01-15T03:58:29.639Z,30.49
2024-01-15T03:58:59.647Z,30.49
2024-01-15T03:59:29.669Z,30.47
2024-01-15T03:59:59.659Z,30.50
2024-01-15T04:00:59.890Z,30.58
2024-01-15T04:01:29.824Z,30.59
2024-01-15T04:01:59.845Z,30.66
2024-01-15T04:02:29.883Z,30.60
2024-01-15T04:02:59.863Z,30.69
2024-01-15T04:03:29.977Z,30.72
2024-01-15T04:03:59.992Z,30.71
2024-01-15T04:04:30.070Z,30.60
2024-01-15T04:05:00.064Z,30.74
2024-01-15T04:05:30.070Z,30.71
2024-01-15T04:06:00.110Z,30.66
2024-01-15T04:06:30.386Z,30.60
2024-01-15T04:07:00.217Z,30.68
2024-01-15T04:07:30.272Z,30.64
2024-01-15T04:08:00.277Z,30.69
2024-01-15T04:08:30.296Z,30.81
2024-01-15T04:09:00.310Z,30.75
2024-01-15T04:10:00.437Z,30.79
2024-01-15T04:10:30.389Z,30.86
2024-01-15T04:11:00.375Z,30.86
2024-01-15T04:12:00.473Z,30.85
2024-01-15T04:12:30.509Z,30.91
2024-01-15T04:13:00.539Z,30.95
2024-01-15T04:13:30.585Z,30.98
2024-01-15T04:14:00.571Z,31.03
2024-01-15T04:14:30.575Z,31.03
2024-01-15T04:15:00.692Z,31.06
2024-01-15T04:15:30.729Z,31.16
2024-01-15T04:16:00.791Z,31.18
2024-01-15T04:16:30.802Z,31.15
2024-01-15T04:17:00.798Z,31.23
2024-01-15T04:17:30.843Z,31.28
2024-01-15T04:18:00.938Z,31.32
2024-01-15T04:18:30.961Z,31.35
2024-01-15T04:19:01.089Z,31.36
2024-01-15T04:19:31.034Z,31.39
2024-01-15T04:20:01.090Z,31.38
2024-01-15T04:20:31.096Z,31.45
2024-01-15T04:21:01.100Z,31.45
2024-01-15T04:21:31.214Z,31.46
2024-01-15T04:22:01.175Z,31.49
2024-01-15T04:22:31.253Z,31.54
2024-01-15T04:23:01.340Z,31.55
2024-01-15T04:23:31.429Z,31.61
2024-01-15T04:24:01.506Z,31.59
2024-01-15T04:24:31.644Z,31.62
2024-01-15T04:25:01.686Z,31.59
2024-01-15T04:25:31.667Z,31.62
2024-01-15T04:26:01.752Z,31.64
2024-01-15T04:26:31.820Z,31.61
2024-01-15T04:27:01.943Z,31.65
2024-01-15T04:27:32.142Z,31.62
2024-01-15T04:28:01.977Z,31.62
2024-01-15T04:29:02.127Z,31.65
2024-01-15T04:29:32.190Z,31.66
2024-01-15T04:30:02.257Z,31.70
2024-01-15T04:30:32.389Z,31.67
2024-01-15T04:31:02.587Z,31.70
2024-01-15T04:31:32.568Z,31.67
2024-01-15T04:32:02.518Z,31.74
2024-01-15T04:32:32.542Z,31.69
2024-01-15T04:33:02.660Z,31.69
2024-01-15T04:33:32.788Z,31.65
2024-01-15T04:34:02.791Z,31.63
2024-01-15T04:34:32.846Z,31.63
2024-01-15T04:35:02.766Z,31.59
2024-01-15T04:35:32.767Z,31.62
2024-01-15T04:36:02.778Z,31.58
2024-01-15T04:36:32.831Z,31.55
2024-01-15T04:37:02.835Z,31.52
2024-01-15T04:37:32.817Z,31.50
2024-01-15T04:38:02.823Z,31.53
2024-01-15T04:38:32.821Z,31.53
2024-01-15T04:39:32.916Z,31.59
2024-01-15T04:40:02.935Z,31.57
2024-01-15T04:40:32.944Z,31.59
2024-01-15T04:41:02.953Z,31.62
2024-01-15T04:41:32.954Z,31.59
2024-01-15T04:42:02.944Z,31.64
2024-01-15T04:42:33.087Z,31.66
2024-01-15T04:43:03.109Z,31.66
2024-01-15T04:43:33.112Z,31.66
2024-01-15T04:44:03.241Z,31.60
2024-01-15T04:44:33.224Z,31.61
2024-01-15T04:45:33.380Z,31.65
2024-01-15T04:46:03.378Z,31.75
2024-01-15T04:46:33.391Z,31.70
2024-01-15T04:47:03.381Z,31.72
2024-01-15T04:48:03.484Z,31.77
2024-01-15T04:48:33.578Z,31.77
2024-01-15T04:49:03.672Z,31.79
2024-01-15T04:49:33.664Z,31.79
2024-01-15T04:50:03.672Z,31.80
2024-01-15T04:50:33.692Z,31.80
2024-01-15T04:51:03.702Z,31.79
2024-01-15T04:51:33.720Z,31.76
2024-01-15T04:52:03.710Z,31.86
2024-01-15T04:52:33.825Z,31.80
2024-01-15T04:53:03.810Z,31.86
2024-01-15T04:53:33.818Z,31.82
2024-01-15T04:54:03.827Z,31.81
2024-01-15T04:54:33.927Z,31.81
2024-01-15T04:55:03.966Z,31.87
2024-01-15T04:55:33.992Z,31.77
2024-01-15T04:56:34.072Z,31.81
2024-01-15T04:57:04.104Z,31.81
2024-01-15T04:57:34.172Z,31.83
2024-01-15T04:58:04.186Z,31.81
2024-01-15T04:58:34.191Z,31.77
2024-01-15T04:59:04.221Z,31.86
2024-01-15T04:59:34.250Z,31.80
2024-01-15T05:00:04.274Z,31.87
2024-01-15T05:00:34.351Z,31.87
2024-01-15T05:01:04.458Z,31.80
2024-01-15T05:01:34.564Z,31.81
2024-01-15T05:02:04.465Z,31.76
2024-01-15T05:03:04.592Z,31.81
2024-01-15T05:03:34.744Z,31.82
2024-01-15T05:04:04.872Z,31.76
2024-01-15T05:04:34.910Z,31.73
2024-01-15T05:05:04.860Z,31.68
2024-01-15T05:05:34.925Z,31.65
2024-01-15T05:06:05.002Z,31.65
2024-01-15T05:06:35.033Z,31.64
2024-01-15T05:07:05.053Z,31.66
2024-01-15T05:07:35.037Z,31.60
2024-01-15T05:08:05.062Z,31.57
2024-01-15T05:08:35.189Z,31.61
2024-01-15T05:09:05.197Z,31.57
2024-01-15T05:09:35.233Z,31.60
2024-01-15T05:10:05.350Z,31.58
2024-01-15T05:10:35.269Z,31.63
2024-01-15T05:11:05.249Z,31.61
2024-01-15T05:11:35.274Z,31.42
2024-01-15T05:12:05.259Z,31.23
2024-01-15T05:12:35.416Z,31.32
2024-01-15T05:13:05.404Z,31.08
2024-01-15T05:13:35.412Z,31.25
2024-01-15T05:14:05.417Z,31.19
2024-01-15T05:14:35.414Z,31.15
2024-01-15T05:15:05.410Z,31.06
2024-01-15T05:16:05.528Z,31.10
2024-01-15T05:16:35.538Z,31.12
2024-01-15T05:17:07.389Z,31.15
2024-01-15T05:17:35.595Z,31.24
2024-01-15T05:18:05.617Z,31.25
2024-01-15T05:18:35.831Z,31.15
2024-01-15T05:19:05.785Z,31.32
2024-01-15T05:19:35.749Z,31.34
2024-01-15T05:20:05.900Z,31.43
2024-01-15T05:20:35.944Z,31.49
2024-01-15T05:21:35.821Z,31.44
2024-01-15T05:22:05.804Z,31.55
2024-01-15T05:22:35.878Z,31.61
2024-01-15T05:23:05.965Z,31.68
2024-01-15T05:23:36.025Z,31.63
2024-01-15T05:24:06.113Z,31.56
2024-01-15T05:24:36.208Z,31.70
2024-01-15T05:25:06.285Z,31.68
2024-01-15T05:25:36.376Z,31.77
2024-01-15T05:26:06.437Z,31.71
2024-01-15T05:26:36.529Z,31.73
2024-01-15T05:27:06.703Z,31.70
2024-01-15T05:27:36.773Z,31.65
2024-01-15T05:28:06.762Z,31.77
2024-01-15T05:28:36.847Z,31.81
2024-01-15T05:29:06.927Z,31.81
2024-01-15T05:29:37.022Z,31.79
2024-01-15T05:30:07.193Z,31.82
2024-01-15T05:30:37.192Z,31.79
2024-01-15T05:31:07.221Z,31.70
2024-01-15T05:31:37.590Z,31.72
2024-01-15T05:32:07.417Z,31.77
2024-01-15T05:32:37.404Z,31.79
2024-01-15T05:33:07.494Z,31.82
2024-01-15T05:33:37.603Z,31.76
2024-01-15T05:34:07.591Z,31.84
2024-01-15T05:34:37.617Z,31.85
2024-01-15T05:35:07.689Z,31.84
2024-01-15T05:35:37.689Z,31.96
2024-01-15T05:36:07.750Z,31.90
2024-01-15T05:36:37.927Z,31.91
2024-01-15T05:37:07.768Z,31.91
2024-01-15T05:37:37.826Z,31.85
2024-01-15T05:38:07.803Z,31.85
2024-01-15T05:38:37.811Z,31.98
2024-01-15T05:39:07.846Z,31.95
2024-01-15T05:39:37.881Z,31.92
2024-01-15T05:40:07.928Z,31.90
2024-01-15T05:40:37.927Z,31.87
2024-01-15T05:41:07.937Z,31.82
2024-01-15T05:41:37.982Z,31.83
2024-01-15T05:42:08.009Z,31.81
2024-01-15T05:42:38.067Z,31.78
2024-01-15T05:43:08.088Z,31.78
2024-01-15T05:43:38.111Z,31.81
2024-01-15T05:44:08.104Z,31.84
2024-01-15T05:44:38.148Z,31.78
2024-01-15T05:45:08.216Z,31.87
2024-01-15T05:45:38.252Z,31.86
2024-01-15T05:46:08.246Z,31.87
2024-01-15T05:46:38.264Z,31.87
2024-01-15T05:47:08.267Z,31.74
2024-01-15T05:47:38.466Z,31.83
2024-01-15T05:48:08.387Z,31.80
2024-01-15T05:48:38.436Z,31.75
2024-01-15T05:49:08.451Z,31.75
2024-01-15T05:49:38.497Z,31.83
2024-01-15T05:50:08.468Z,31.95
2024-01-15T05:50:38.518Z,31.82
2024-01-15T05:51:08.566Z,31.91
2024-01-15T05:51:38.545Z,32.08
2024-01-15T05:52:08.536Z,32.27
2024-01-15T05:52:38.547Z,32.16
2024-01-15T05:53:08.546Z,32.11
2024-01-15T05:53:38.549Z,32.18
2024-01-15T05:54:08.590Z,32.12
2024-01-15T05:54:38.619Z,32.23
2024-01-15T05:55:08.657Z,32.16
2024-01-15T05:55:38.672Z,32.09
2024-01-15T05:56:38.654Z,31.92
2024-01-15T05:57:08.671Z,31.92
2024-01-15T05:57:38.730Z,31.87
2024-01-15T05:58:08.742Z,31.81
2024-01-15T05:58:38.771Z,31.93
2024-01-15T05:59:10.099Z,31.93
2024-01-15T05:59:38.908Z,31.88
2024-01-15T06:00:09.015Z,31.83
2024-01-15T06:00:39.133Z,31.89
2024-01-15T06:01:09.224Z,32.02
2024-01-15T06:01:39.317Z,32.00
2024-01-15T06:02:09.348Z,32.04
2024-01-15T06:02:39.350Z,31.98
2024-01-15T06:03:09.415Z,32.03
2024-01-15T06:03:39.523Z,32.04
2024-01-15T06:04:09.558Z,32.02
2024-01-15T06:04:39.542Z,32.01
2024-01-15T06:05:09.554Z,31.87
2024-01-15T06:05:39.627Z,31.94
2024-01-15T06:06:09.700Z,31.92
2024-01-15T06:06:39.689Z,31.90
2024-01-15T06:07:09.764Z,31.88
2024-01-15T06:07:39.789Z,31.85
2024-01-15T06:08:09.803Z,31.75
2024-01-15T06:08:39.799Z,31.83
2024-01-15T06:09:39.897Z,31.65
2024-01-15T06:10:09.898Z,31.64
2024-01-15T06:10:39.894Z,31.70
2024-01-15T06:11:09.898Z,31.66
2024-01-15T06:11:39.909Z,31.69
2024-01-15T06:12:09.933Z,31.63
2024-01-15T06:12:40.063Z,31.57
2024-01-15T06:13:09.958Z,31.47
2024-01-15T06:14:10.044Z,31.49
2024-01-15T06:14:40.049Z,31.46
2024-01-15T06:15:10.077Z,31.49
2024-01-15T06:15:40.111Z,31.44
2024-01-15T06:16:10.692Z,31.49
2024-01-15T06:16:40.206Z,31.44
2024-01-15T06:17:10.216Z,31.44
2024-01-15T06:17:40.305Z,31.33
2024-01-15T06:18:40.439Z,31.34
2024-01-15T06:19:10.558Z,31.36
2024-01-15T06:19:40.478Z,31.41
2024-01-15T06:20:10.474Z,31.42
2024-01-15T06:20:40.497Z,31.45
2024-01-15T06:21:10.554Z,31.51
2024-01-15T06:21:40.663Z,31.57
2024-01-15T06:22:10.632Z,31.57
2024-01-15T06:22:40.708Z,31.59
2024-01-15T06:23:10.791Z,31.59
2024-01-15T06:23:40.888Z,31.65
2024-01-15T06:24:11.061Z,31.65
2024-01-15T06:24:41.062Z,31.63
2024-01-15T06:25:11.043Z,31.68
2024-01-15T06:25:41.132Z,31.53
2024-01-15T06:26:11.204Z,31.38
2024-01-15T06:26:41.284Z,31.46
2024-01-15T06:27:11.378Z,31.34
2024-01-15T06:27:41.424Z,31.44
2024-01-15T06:28:11.415Z,31.34
2024-01-15T06:28:41.506Z,31.38
2024-01-15T06:29:11.613Z,31.40
2024-01-15T06:29:41.685Z,31.38
2024-01-15T06:30:11.999Z,31.37
2024-01-15T06:30:41.861Z,31.34
2024-01-15T06:31:12.052Z,31.35
2024-01-15T06:31:42.237Z,31.30
2024-01-15T06:32:11.982Z,31.36
2024-01-15T06:32:42.105Z,31.32
2024-01-15T06:33:12.175Z,31.23
2024-01-15T06:33:42.313Z,31.29
2024-01-15T06:34:12.414Z,31.28
2024-01-15T06:34:42.270Z,31.32
2024-01-15T06:35:12.254Z,31.34
2024-01-15T06:35:42.280Z,31.30
2024-01-15T06:36:12.325Z,31.36
2024-01-15T06:36:42.413Z,31.27
2024-01-15T06:37:12.427Z,31.29
2024-01-15T06:37:42.427Z,31.27
2024-01-15T06:38:12.434Z,31.33
2024-01-15T06:38:42.499Z,31.27
2024-01-15T06:39:12.683Z,31.36
2024-01-15T06:39:42.628Z,31.31
2024-01-15T06:40:12.655Z,31.25
2024-01-15T06:40:42.700Z,31.27
2024-01-15T06:41:12.691Z,31.29
2024-01-15T06:41:42.678Z,31.32
2024-01-15T06:42:12.722Z,31.40
2024-01-15T06:42:42.771Z,31.38
2024-01-15T06:43:12.778Z,31.34
2024-01-15T06:43:42.770Z,31.40
2024-01-15T06:44:12.770Z,31.34
2024-01-15T06:44:42.776Z,31.44
2024-01-15T06:45:12.860Z,31.46